Time;durP1;ratioP1;P1;durP2;ratioP2;P2;SDS_P1;SDS_P2;PMS_P1;PMS_P2;Temp;Humidity;BMP_temperature;BMP_pressure;BME280_temperature;BME280_humidity;BME280_pressure;Samples;Min_cycle;Max_cycle;Signal;HPM_P1;HPM_P2
2022/08/21 00:02:01;;;;;;;10.77;6.25;;;16.80;99.90;;;;;;5014214;28;20046;-75
2022/08/21 00:04:27;;;;;;;9.40;6.55;;;16.80;99.90;;;;;;5014258;28;20525;-75
2022/08/21 00:06:53;;;;;;;8.95;6.80;;;16.80;99.90;;;;;;4996765;28;20134;-75
2022/08/21 00:09:20;;;;;;;10.50;6.20;;;16.70;99.90;;;;;;5014248;28;20121;-75
2022/08/21 00:11:46;;;;;;;8.18;6.47;;;16.80;99.90;;;;;;5012954;28;20137;-75
2022/08/21 00:14:13;;;;;;;7.32;6.00;;;16.80;99.90;;;;;;5013305;28;20042;-75
2022/08/21 00:16:39;;;;;;;9.30;6.22;;;16.60;99.90;;;;;;5013389;28;20102;-74
2022/08/21 00:19:06;;;;;;;9.10;6.80;;;16.90;99.90;;;;;;5014374;28;20401;-75
2022/08/21 00:21:34;;;;;;;10.27;6.20;;;16.60;99.90;;;;;;5012959;28;20060;-75
2022/08/21 00:24:00;;;;;;;7.95;6.38;;;16.60;99.90;;;;;;5013860;28;20049;-75
2022/08/21 00:26:26;;;;;;;6.95;6.25;;;16.50;99.90;;;;;;5013963;28;20058;-75
2022/08/21 00:28:52;;;;;;;10.38;6.57;;;16.40;99.90;;;;;;5013784;28;20053;-75
2022/08/21 00:31:18;;;;;;;10.20;6.85;;;16.40;99.90;;;;;;5013748;28;20077;-75
2022/08/21 00:33:44;;;;;;;10.55;6.85;;;16.50;99.90;;;;;;5014301;28;20085;-75
2022/08/21 00:36:10;;;;;;;7.65;5.90;;;16.40;99.90;;;;;;5013784;28;20060;-75
2022/08/21 00:38:36;;;;;;;8.27;5.82;;;16.60;99.90;;;;;;5013892;28;20045;-75
2022/08/21 00:41:08;;;;;;;11.23;6.50;;;16.40;99.90;;;;;;5012943;28;20048;-75
2022/08/21 00:43:36;;;;;;;8.38;6.25;;;16.40;99.90;;;;;;4995742;28;20141;-76
2022/08/21 00:46:04;;;;;;;9.43;6.22;;;16.40;99.90;;;;;;5013349;28;20050;-75
2022/08/21 00:48:30;;;;;;;7.22;6.30;;;16.40;99.90;;;;;;4996333;28;20053;-75
2022/08/21 00:51:01;;;;;;;9.48;6.60;;;16.40;99.90;;;;;;5013842;28;20045;-75
2022/08/21 00:53:29;;;;;;;10.57;7.10;;;16.30;99.90;;;;;;5016043;28;20046;-76
2022/08/21 00:55:56;;;;;;;9.95;7.00;;;16.30;99.90;;;;;;5015048;28;20124;-75
2022/08/21 00:58:23;;;;;;;10.07;7.13;;;16.10;99.90;;;;;;5013968;28;20041;-75
2022/08/21 01:00:50;;;;;;;9.10;7.25;;;16.10;99.90;;;;;;4996752;28;20045;-75
2022/08/21 01:03:19;;;;;;;9.73;7.78;;;16.10;99.90;;;;;;5013830;28;20045;-76
2022/08/21 01:05:46;;;;;;;10.15;7.28;;;16.20;99.90;;;;;;5012901;28;20042;-75
2022/08/21 01:08:15;;;;;;;10.60;7.47;;;16.10;99.90;;;;;;5012780;28;20100;-75
2022/08/21 01:10:41;;;;;;;11.52;7.82;;;16.20;99.90;;;;;;5013611;28;20057;-75
2022/08/21 01:13:09;;;;;;;9.32;7.55;;;16.00;99.90;;;;;;5013894;28;20050;-75
2022/08/21 01:15:38;;;;;;;11.95;8.00;;;16.10;99.90;;;;;;5013096;28;20401;-75
2022/08/21 01:18:05;;;;;;;8.60;7.07;;;16.10;99.90;;;;;;5013141;28;20058;-75
2022/08/21 01:20:31;;;;;;;9.75;7.20;;;16.20;99.90;;;;;;5017161;28;20053;-75
2022/08/21 01:22:57;;;;;;;11.25;7.35;;;16.20;99.90;;;;;;5017197;28;20132;-75
2022/08/21 01:25:23;;;;;;;11.77;7.03;;;16.00;99.90;;;;;;5017160;28;20133;-75
2022/08/21 01:27:49;;;;;;;9.15;6.97;;;16.00;99.90;;;;;;5016207;28;20049;-75
2022/08/21 01:30:24;;;;;;;8.32;7.50;;;16.00;99.90;;;;;;5017086;28;20076;-75
2022/08/21 01:32:51;;;;;;;10.30;6.95;;;16.10;99.90;;;;;;5017081;28;20049;-74
2022/08/21 01:35:19;;;;;;;10.38;8.00;;;15.90;99.90;;;;;;5016136;28;20129;-75
2022/08/21 01:37:45;;;;;;;9.30;7.10;;;15.90;99.90;;;;;;4999476;28;20046;-75
2022/08/21 01:40:13;;;;;;;10.63;7.45;;;16.10;99.90;;;;;;5016902;28;20473;-74
2022/08/21 01:42:39;;;;;;;12.27;7.50;;;16.00;99.90;;;;;;5016840;28;20050;-74
2022/08/21 01:45:07;;;;;;;11.02;7.43;;;15.80;99.90;;;;;;5016369;28;20046;-75
2022/08/21 01:47:32;;;;;;;9.52;7.63;;;15.70;99.90;;;;;;5016591;28;20052;-74
2022/08/21 01:49:59;;;;;;;12.77;7.68;;;15.70;99.90;;;;;;5015583;28;20129;-74
2022/08/21 01:52:25;;;;;;;11.00;7.53;;;15.90;99.90;;;;;;5016461;28;20401;-75
2022/08/21 01:54:51;;;;;;;10.05;7.18;;;15.90;99.90;;;;;;5016412;28;20080;-75
2022/08/21 01:57:17;;;;;;;9.23;6.47;;;15.90;99.90;;;;;;5016620;28;20037;-74
2022/08/21 01:59:42;;;;;;;11.95;6.75;;;16.00;99.90;;;;;;5015800;28;20180;-74
2022/08/21 02:02:08;;;;;;;7.43;5.70;;;15.70;99.90;;;;;;5015461;28;20045;-74
2022/08/21 02:04:34;;;;;;;8.13;5.85;;;15.80;99.90;;;;;;5016449;28;20042;-74
2022/08/21 02:07:01;;;;;;;9.88;6.90;;;15.80;99.90;;;;;;5015397;28;20054;-74
2022/08/21 02:09:27;;;;;;;10.40;6.20;;;15.80;99.90;;;;;;5016327;28;20045;-75
2022/08/21 02:11:53;;;;;;;8.88;5.60;;;15.70;99.90;;;;;;5015202;28;20057;-74
2022/08/21 02:14:19;;;;;;;8.93;5.90;;;15.70;99.90;;;;;;4998623;28;20089;-75
2022/08/21 02:16:45;;;;;;;9.27;5.57;;;15.70;99.90;;;;;;5016207;28;20127;-74
2022/08/21 02:19:13;;;;;;;9.02;5.60;;;15.70;99.90;;;;;;5016275;28;20064;-75
2022/08/21 02:21:39;;;;;;;8.20;5.43;;;15.40;99.90;;;;;;5015204;28;20494;-74
2022/08/21 02:24:05;;;;;;;6.30;5.18;;;15.50;99.90;;;;;;5015807;28;20046;-75
2022/08/21 02:26:30;;;;;;;6.40;5.15;;;15.70;99.90;;;;;;5014894;28;20124;-74
2022/08/21 02:28:56;;;;;;;9.07;5.20;;;15.50;99.90;;;;;;5013940;28;20052;-74
2022/08/21 02:31:22;;;;;;;8.90;5.47;;;15.60;99.90;;;;;;5015605;28;20523;-74
2022/08/21 02:33:47;;;;;;;8.85;5.47;;;15.40;99.90;;;;;;5015930;28;20045;-75
2022/08/21 02:36:14;;;;;;;6.93;5.45;;;;;;;;;;5015840;28;20042;-74
2022/08/21 02:38:41;;;;;;;10.90;5.57;;;15.80;99.90;;;;;;5014532;28;20054;-75
2022/08/21 02:41:10;;;;;;;6.80;5.25;;;15.30;99.90;;;;;;5014664;28;20128;-75
2022/08/21 02:43:36;;;;;;;7.13;5.20;;;15.50;99.90;;;;;;5014729;28;20485;-74
2022/08/21 02:46:05;;;;;;;7.05;5.30;;;15.40;99.90;;;;;;5015270;28;20045;-75
2022/08/21 02:48:32;;;;;;;8.95;5.65;;;15.30;99.90;;;;;;5015451;28;20081;-74
2022/08/21 02:51:08;;;;;;;6.20;5.07;;;15.30;99.90;;;;;;5015224;28;20060;-74
2022/08/21 02:53:34;;;;;;;8.02;5.18;;;15.40;99.90;;;;;;5015528;28;20401;-74
2022/08/21 02:56:03;;;;;;;8.82;5.57;;;15.30;99.90;;;;;;5015460;28;20050;-74
2022/08/21 02:58:33;;;;;;;11.95;5.22;;;15.20;99.90;;;;;;5015618;28;20157;-75
2022/08/21 03:00:58;;;;;;;5.72;5.22;;;15.10;99.90;;;;;;5015359;28;20052;-75
2022/08/21 03:03:26;;;;;;;6.43;5.10;;;15.20;99.90;;;;;;5014220;28;20049;-75
2022/08/21 03:05:52;;;;;;;7.03;4.63;;;15.20;99.90;;;;;;4997778;28;20050;-74
2022/08/21 03:08:18;;;;;;;6.43;4.40;;;15.40;99.90;;;;;;5015200;28;20042;-74
2022/08/21 03:10:49;;;;;;;7.72;4.72;;;15.20;99.90;;;;;;5014899;28;20050;-74
2022/08/21 03:13:15;;;;;;;6.22;4.38;;;15.30;99.90;;;;;;5014235;28;20052;-74
2022/08/21 03:15:41;;;;;;;7.47;4.15;;;15.20;99.90;;;;;;5014592;28;20402;-75
2022/08/21 03:18:08;;;;;;;6.88;4.47;;;15.10;99.90;;;;;;5014980;28;20061;-74
2022/08/21 03:20:35;;;;;;;6.07;4.25;;;15.40;99.90;;;;;;5014410;28;20053;-74
2022/08/21 03:23:03;;;;;;;8.13;4.50;;;15.20;99.90;;;;;;5014936;28;20474;-74
2022/08/21 03:25:33;;;;;;;5.35;4.38;;;15.20;99.90;;;;;;4997880;28;20072;-74
2022/08/21 03:28:00;;;;;;;6.97;4.22;;;15.30;99.90;;;;;;5015026;28;20058;-75
2022/08/21 03:30:26;;;;;;;6.93;4.40;;;15.20;99.90;;;;;;5013475;28;20485;-75
2022/08/21 03:32:52;;;;;;;6.72;4.57;;;15.20;99.90;;;;;;5013793;28;20050;-75
2022/08/21 03:35:19;;;;;;;8.38;4.90;;;15.20;99.90;;;;;;5014796;28;20050;-74
2022/08/21 03:37:46;;;;;;;7.43;4.03;;;15.20;99.90;;;;;;5013424;28;20124;-75
2022/08/21 03:40:14;;;;;;;7.32;4.35;;;15.40;99.90;;;;;;5014224;28;20058;-74
2022/08/21 03:42:40;;;;;;;6.65;4.72;;;15.30;99.90;;;;;;5014537;28;20054;-74
2022/08/21 03:45:07;;;;;;;7.47;4.35;;;15.20;99.90;;;;;;5014040;28;20065;-75
2022/08/21 03:47:32;;;;;;;6.53;4.47;;;15.50;99.90;;;;;;5014425;28;20153;-74
2022/08/21 03:49:59;;;;;;;7.55;4.50;;;15.30;99.90;;;;;;5014591;28;20058;-74
2022/08/21 03:52:25;;;;;;;8.05;4.43;;;15.10;99.90;;;;;;5014334;28;20120;-74
2022/08/21 03:54:50;;;;;;;6.85;4.00;;;15.10;99.90;;;;;;5014667;28;20157;-75
2022/08/21 03:57:16;;;;;;;6.97;4.68;;;15.10;99.90;;;;;;5014398;28;20494;-75
2022/08/21 03:59:43;;;;;;;5.55;4.50;;;15.30;99.90;;;;;;5013358;28;20405;-74
2022/08/21 04:02:09;;;;;;;7.00;4.75;;;15.20;99.90;;;;;;5014137;28;20068;-75
2022/08/21 04:04:35;;;;;;;6.18;4.70;;;15.30;99.90;;;;;;5013314;28;20085;-74
2022/08/21 04:07:01;;;;;;;7.90;4.38;;;15.10;99.90;;;;;;5014320;28;20049;-74
2022/08/21 04:09:27;;;;;;;6.95;4.82;;;15.30;99.90;;;;;;5014165;28;20436;-74
2022/08/21 04:11:53;;;;;;;6.05;4.43;;;15.20;99.90;;;;;;5012795;28;20104;-75
2022/08/21 04:14:20;;;;;;;6.38;4.57;;;15.20;99.90;;;;;;5013494;28;20192;-75
2022/08/21 04:16:46;;;;;;;7.38;5.05;;;15.40;99.90;;;;;;5013654;28;20559;-74
2022/08/21 04:19:13;;;;;;;6.65;4.82;;;15.20;99.90;;;;;;5013509;28;20058;-74
2022/08/21 04:21:39;;;;;;;6.78;5.10;;;15.10;99.90;;;;;;5014104;28;20042;-74
2022/08/21 04:24:07;;;;;;;6.20;4.57;;;15.10;99.90;;;;;;5013072;28;20053;-75
2022/08/21 04:26:34;;;;;;;6.28;4.88;;;15.20;99.90;;;;;;5013902;28;20067;-74
2022/08/21 04:29:00;;;;;;;9.27;5.22;;;15.20;99.90;;;;;;5013711;28;20382;-74
2022/08/21 04:31:31;;;;;;;8.70;5.70;;;15.30;99.90;;;;;;5013409;28;20050;-75
2022/08/21 04:33:56;;;;;;;9.10;5.90;;;15.10;99.90;;;;;;5012949;28;20049;-75
2022/08/21 04:36:22;;;;;;;8.82;5.65;;;15.10;99.90;;;;;;5012768;28;20104;-74
2022/08/21 04:38:48;;;;;;;5.85;5.18;;;15.20;99.90;;;;;;5013966;28;20042;-75
2022/08/21 04:41:14;;;;;;;8.63;5.38;;;15.10;99.90;;;;;;5012727;28;20398;-74
2022/08/21 04:43:40;;;;;;;8.50;5.22;;;15.00;99.90;;;;;;4996264;28;20065;-74
2022/08/21 04:46:06;;;;;;;9.68;6.13;;;14.90;99.90;;;;;;5012198;28;20046;-75
2022/08/21 04:48:35;;;;;;;7.32;5.45;;;14.90;99.90;;;;;;5013810;28;20563;-75
2022/08/21 04:51:08;;;;;;;8.95;5.38;;;15.10;99.90;;;;;;5013663;28;20053;-75
2022/08/21 04:54:05;;;;;;;7.82;5.18;;;15.10;99.90;;;;;;5014950;28;20052;-75
2022/08/21 04:56:38;;;;;;;8.75;6.28;;;15.20;99.90;;;;;;5017764;28;20132;-75
2022/08/21 04:59:11;;;;;;;9.60;6.32;;;15.10;99.90;;;;;;5017709;28;20049;-74
2022/08/21 05:01:38;;;;;;;10.27;6.28;;;15.30;99.90;;;;;;5017611;28;20046;-75
2022/08/21 05:04:08;;;;;;;9.95;5.82;;;15.10;99.90;;;;;;5017618;28;20042;-75
2022/08/21 05:06:37;;;;;;;9.65;6.03;;;15.10;99.90;;;;;;5017287;28;20049;-75
2022/08/21 05:09:04;;;;;;;8.27;5.45;;;15.30;99.90;;;;;;5017467;28;20045;-75
2022/08/21 05:11:31;;;;;;;8.88;5.80;;;15.10;99.90;;;;;;5017452;28;20398;-75
2022/08/21 05:13:57;;;;;;;8.98;5.85;;;15.20;99.90;;;;;;5016955;28;20049;-75
2022/08/21 05:16:23;;;;;;;7.10;5.32;;;15.00;99.90;;;;;;5017340;28;20049;-75
2022/08/21 05:18:48;;;;;;;9.30;5.80;;;15.20;99.90;;;;;;5017156;28;20057;-75
2022/08/21 05:21:14;;;;;;;8.57;5.80;;;15.40;99.90;;;;;;5017269;28;20099;-75
2022/08/21 05:23:40;;;;;;;9.05;5.70;;;15.10;99.90;;;;;;5017200;28;20080;-74
2022/08/21 05:26:05;;;;;;;6.63;4.95;;;15.40;99.90;;;;;;4999809;28;20173;-75
2022/08/21 05:28:31;;;;;;;6.53;5.43;;;15.20;99.90;;;;;;5017141;28;20059;-75
2022/08/21 05:30:58;;;;;;;7.97;5.55;;;15.20;99.90;;;;;;5015907;28;20042;-75
2022/08/21 05:33:24;;;;;;;8.52;6.20;;;15.10;99.90;;;;;;5016979;28;20081;-75
2022/08/21 05:35:52;;;;;;;9.27;6.20;;;15.20;99.90;;;;;;4999427;28;20100;-75
2022/08/21 05:38:18;;;;;;;8.65;5.60;;;15.30;99.90;;;;;;5017348;28;20076;-75
2022/08/21 05:40:44;;;;;;;9.85;6.40;;;15.40;99.90;;;;;;5015687;28;20054;-75
2022/08/21 05:43:10;;;;;;;9.18;6.53;;;15.40;99.90;;;;;;5016808;28;20085;-75
2022/08/21 05:45:36;;;;;;;10.48;6.50;;;15.50;99.90;;;;;;5015340;28;20458;-75
2022/08/21 05:48:13;;;;;;;8.18;5.43;;;15.50;99.90;;;;;;4999585;28;20046;-75
2022/08/21 05:50:39;;;;;;;10.32;5.55;;;15.40;99.90;;;;;;5017050;28;20060;-75
2022/08/21 05:53:06;;;;;;;10.98;6.03;;;15.50;99.90;;;;;;5016858;28;20046;-75
2022/08/21 05:55:32;;;;;;;8.68;5.68;;;15.40;99.90;;;;;;5016683;28;20128;-74
2022/08/21 05:57:58;;;;;;;6.13;5.53;;;15.50;99.90;;;;;;5015332;28;20095;-75
2022/08/21 06:00:24;;;;;;;8.57;5.55;;;15.50;99.90;;;;;;5016644;28;20049;-75
2022/08/21 06:02:50;;;;;;;10.23;5.82;;;15.50;99.90;;;;;;5016333;28;20050;-75
2022/08/21 06:05:17;;;;;;;8.73;5.55;;;15.50;99.90;;;;;;5016222;28;20505;-75
2022/08/21 06:07:43;;;;;;;9.88;5.20;;;15.90;99.90;;;;;;5016333;28;20042;-74
2022/08/21 06:10:09;;;;;;;7.88;5.45;;;15.70;99.90;;;;;;5016639;28;20093;-75
2022/08/21 06:12:35;;;;;;;6.88;5.30;;;15.70;99.90;;;;;;5016608;28;20061;-75
2022/08/21 06:15:00;;;;;;;9.77;5.38;;;15.80;99.90;;;;;;4998284;28;20421;-75
2022/08/21 06:17:26;;;;;;;8.88;5.63;;;16.10;99.90;;;;;;5015960;28;20072;-75
2022/08/21 06:19:53;;;;;;;9.93;5.53;;;15.90;99.90;;;;;;5014668;28;20112;-75
2022/08/21 06:22:19;;;;;;;7.13;4.85;;;16.00;99.90;;;;;;5016661;28;20046;-75
2022/08/21 06:24:45;;;;;;;8.20;5.78;;;15.90;99.90;;;;;;5015095;28;20050;-75
2022/08/21 06:27:10;;;;;;;7.63;5.53;;;16.00;99.90;;;;;;5015951;28;20108;-75
2022/08/21 06:29:37;;;;;;;9.95;6.60;;;16.00;99.90;;;;;;5015996;28;20042;-75
2022/08/21 06:32:03;;;;;;;7.88;5.30;;;16.10;99.90;;;;;;5015683;28;20053;-75
2022/08/21 06:34:29;;;;;;;10.55;5.55;;;16.10;99.90;;;;;;5014543;28;20077;-76
2022/08/21 06:36:55;;;;;;;10.18;5.85;;;16.60;99.90;;;;;;5014848;28;20121;-75
2022/08/21 06:39:21;;;;;;;10.70;5.80;;;16.30;99.90;;;;;;5014608;28;20060;-75
2022/08/21 06:41:47;;;;;;;9.13;5.47;;;16.30;99.90;;;;;;5015766;28;20042;-75
2022/08/21 06:44:16;;;;;;;10.93;6.57;;;16.20;99.90;;;;;;5015278;28;20042;-76
2022/08/21 06:46:42;;;;;;;11.57;7.40;;;16.60;99.90;;;;;;5014581;28;20057;-75
2022/08/21 06:49:07;;;;;;;11.82;7.93;;;16.40;99.90;;;;;;5015768;28;20394;-75
2022/08/21 06:51:33;;;;;;;9.70;6.90;;;16.60;99.90;;;;;;5015883;28;20077;-76
2022/08/21 06:53:59;;;;;;;11.60;7.70;;;16.50;99.90;;;;;;5014477;28;20046;-75
2022/08/21 06:56:25;;;;;;;9.68;6.40;;;16.70;99.90;;;;;;5015302;28;20132;-76
2022/08/21 06:58:51;;;;;;;10.68;6.05;;;16.70;99.90;;;;;;5014343;28;20038;-75
2022/08/21 07:01:19;;;;;;;10.45;7.03;;;16.70;99.90;;;;;;5014133;28;20054;-76
2022/08/21 07:03:45;;;;;;;13.15;7.35;;;16.80;99.90;;;;;;5015484;28;20089;-76
2022/08/21 07:06:11;;;;;;;14.05;9.20;;;16.80;99.90;;;;;;5014303;28;20046;-76
2022/08/21 07:08:37;;;;;;;13.98;8.30;;;16.80;99.90;;;;;;5015319;28;20046;-76
2022/08/21 07:11:09;;;;;;;12.80;7.35;;;17.00;99.90;;;;;;5014096;28;20133;-76
2022/08/21 07:13:35;;;;;;;11.98;7.55;;;17.20;99.90;;;;;;5015265;28;20046;-77
2022/08/21 07:16:01;;;;;;;8.02;5.93;;;17.10;99.90;;;;;;5012576;28;20042;-76
2022/08/21 07:18:27;;;;;;;7.75;5.50;;;17.30;99.90;;;;;;5014968;28;20120;-76
2022/08/21 07:20:54;;;;;;;9.43;5.55;;;17.20;99.90;;;;;;4997774;28;20057;-76
2022/08/21 07:23:28;;;;;;;10.98;5.40;;;17.20;99.90;;;;;;5014823;28;20137;-76
2022/08/21 07:25:54;;;;;;;6.43;4.00;;;17.50;99.90;;;;;;5013920;28;20085;-76
2022/08/21 07:28:20;;;;;;;6.82;4.13;;;17.60;99.90;;;;;;5013421;28;20088;-75
2022/08/21 07:30:51;;;;;;;7.70;4.65;;;17.60;99.90;;;;;;5014929;28;20383;-76
2022/08/21 07:33:17;;;;;;;6.22;3.45;;;17.70;99.90;;;;;;5014226;28;20089;-75
2022/08/21 07:35:43;;;;;;;7.22;2.97;;;18.00;99.90;;;;;;5013787;28;20088;-76
2022/08/21 07:38:09;;;;;;;9.20;3.30;;;18.10;99.90;;;;;;5014849;28;20092;-76
2022/08/21 07:40:34;;;;;;;8.20;2.97;;;17.80;99.90;;;;;;5014707;28;20049;-76
2022/08/21 07:43:00;;;;;;;8.30;2.80;;;18.20;99.90;;;;;;4982179;28;20077;-78
2022/08/21 07:45:26;;;;;;;8.50;3.60;;;17.80;99.90;;;;;;4993916;28;20057;-77
2022/08/21 07:47:52;;;;;;;7.70;3.35;;;17.90;99.90;;;;;;4994575;28;20375;-78
2022/08/21 07:50:19;;;;;;;6.38;2.95;;;18.20;99.90;;;;;;4993400;28;20541;-77
2022/08/21 07:52:45;;;;;;;7.80;2.80;;;18.10;99.90;;;;;;4993115;28;20089;-78
2022/08/21 07:55:14;;;;;;;6.80;2.42;;;18.50;99.90;;;;;;4994347;28;20445;-77
2022/08/21 07:57:40;;;;;;;6.70;2.40;;;18.30;99.90;;;;;;4991509;28;20077;-77
2022/08/21 08:00:13;;;;;;;6.72;2.47;;;18.60;99.90;;;;;;4994146;28;20524;-77
2022/08/21 08:02:39;;;;;;;8.38;1.95;;;18.40;99.90;;;;;;4994511;28;20439;-76
2022/08/21 08:05:09;;;;;;;10.23;2.13;;;18.50;99.90;;;;;;4994735;28;20054;-77
2022/08/21 08:07:35;;;;;;;6.35;2.05;;;18.60;99.90;;;;;;4994689;28;20050;-77
2022/08/21 08:10:02;;;;;;;5.63;2.20;;;18.80;99.90;;;;;;4994499;28;20058;-77
2022/08/21 08:12:29;;;;;;;5.00;1.80;;;18.90;99.90;;;;;;4994379;28;20050;-77
2022/08/21 08:14:59;;;;;;;7.13;1.85;;;18.70;99.90;;;;;;4994318;28;20050;-80
2022/08/21 08:17:27;;;;;;;5.95;1.83;;;18.90;99.90;;;;;;5009643;28;20054;-79
2022/08/21 08:19:53;;;;;;;7.10;2.20;;;19.20;99.90;;;;;;4994497;28;20401;-77
2022/08/21 08:22:23;;;;;;;6.95;2.20;;;19.20;99.90;;;;;;4994308;28;20422;-76
2022/08/21 08:24:50;;;;;;;4.95;1.95;;;19.10;99.90;;;;;;4993016;28;20046;-79
2022/08/21 08:27:17;;;;;;;4.22;1.92;;;19.00;99.90;;;;;;4994885;28;20469;-76
2022/08/21 08:29:43;;;;;;;6.78;1.65;;;19.10;99.90;;;;;;4993293;28;20089;-78
2022/08/21 08:32:09;;;;;;;5.38;1.98;;;19.10;99.90;;;;;;4993945;28;20121;-77
2022/08/21 08:34:36;;;;;;;6.05;1.90;;;19.40;99.90;;;;;;4992856;28;20541;-76
2022/08/21 08:37:03;;;;;;;7.55;2.05;;;19.30;99.90;;;;;;4993641;28;20046;-75
2022/08/21 08:39:28;;;;;;;7.22;2.25;;;19.20;99.90;;;;;;4993549;28;20042;-75
2022/08/21 08:42:03;;;;;;;7.43;2.13;;;19.40;99.90;;;;;;4993828;28;20038;-75
2022/08/21 08:44:30;;;;;;;5.13;1.85;;;19.50;99.90;;;;;;4991697;28;20445;-75
2022/08/21 08:46:57;;;;;;;7.15;1.70;;;19.40;99.90;;;;;;4993672;28;20454;-76
2022/08/21 08:49:26;;;;;;;5.90;1.58;;;19.40;99.90;;;;;;4991034;28;20046;-77
2022/08/21 08:52:07;;;;;;;3.55;1.48;;;19.40;99.90;;;;;;4993303;28;20041;-78
2022/08/21 08:54:49;;;;;;;4.70;1.55;;;19.50;99.90;;;;;;4991394;28;20050;-75
2022/08/21 08:57:18;;;;;;;6.25;2.13;;;19.50;99.90;;;;;;4989935;28;20085;-76
2022/08/21 09:12:48;;;;;;;3.45;1.30;;;20.00;99.90;;;;;;5711519;23;20054;-79
2022/08/21 09:15:33;;;;;;;;;;;20.00;99.90;;;;;;4971904;28;20070;-83
2022/08/21 09:18:29;;;;;;;3.83;1.40;;;20.00;99.90;;;;;;4964738;28;19925;-87
2022/08/21 09:21:21;;;;;;;3.50;1.70;;;20.00;99.90;;;;;;4950025;28;20093;-88
2022/08/21 09:24:13;;;;;;;6.35;1.40;;;20.20;99.90;;;;;;4963954;28;20051;-88
2022/08/21 09:26:56;;;;;;;4.32;1.20;;;20.00;99.90;;;;;;4926111;28;20089;-85
2022/08/21 09:29:28;;;;;;;5.07;1.25;;;20.10;99.90;;;;;;4968235;28;20035;-85
2022/08/21 09:31:53;;;;;;;9.32;1.67;;;20.10;99.90;;;;;;4968826;28;20043;-81
2022/08/21 09:34:29;;;;;;;3.65;1.00;;;20.10;99.90;;;;;;4964558;28;20098;-79
2022/08/21 09:36:56;;;;;;;5.82;1.52;;;20.20;99.90;;;;;;4961404;28;20137;-81
2022/08/21 09:39:32;;;;;;;6.68;1.55;;;20.20;99.90;;;;;;4968939;28;20069;-78
2022/08/21 09:42:06;;;;;;;5.45;1.20;;;20.30;99.90;;;;;;4969402;28;20418;-77
2022/08/21 09:44:39;;;;;;;3.55;1.15;;;20.30;99.90;;;;;;4969651;28;20082;-79
2022/08/21 09:47:05;;;;;;;4.32;1.15;;;20.40;99.90;;;;;;4966461;28;20097;-75
2022/08/21 09:49:37;;;;;;;3.85;1.10;;;20.40;99.90;;;;;;4968529;28;20054;-78
2022/08/21 09:52:16;;;;;;;4.00;1.10;;;20.40;99.90;;;;;;4970942;28;20043;-79
2022/08/21 09:54:45;;;;;;;4.88;0.90;;;20.50;99.90;;;;;;4969905;28;20126;-82
2022/08/21 09:57:38;;;;;;;3.05;0.80;;;20.50;99.90;;;;;;4968049;28;20039;-78
2022/08/21 10:00:21;;;;;;;4.25;0.82;;;20.50;99.90;;;;;;4965674;28;20801;-78
2022/08/21 10:02:46;;;;;;;5.28;1.00;;;20.60;99.90;;;;;;4968557;28;20035;-78
2022/08/21 10:05:20;;;;;;;3.38;1.00;;;20.60;99.90;;;;;;4968766;28;20058;-76
2022/08/21 10:07:46;;;;;;;3.70;0.98;;;20.70;99.90;;;;;;4964822;28;20125;-76
2022/08/21 10:10:19;;;;;;;3.97;1.13;;;20.70;99.90;;;;;;4967372;28;20474;-77
2022/08/21 10:13:05;;;;;;;3.22;0.85;;;20.70;99.90;;;;;;4966516;28;20058;-78
2022/08/21 10:15:58;;;;;;;4.63;1.15;;;20.80;99.90;;;;;;4968922;28;20170;-77
2022/08/21 10:18:51;;;;;;;3.40;0.82;;;20.80;99.90;;;;;;4967025;28;20061;-78
2022/08/21 10:22:10;;;;;;;3.47;0.60;;;20.80;99.90;;;;;;4969518;28;20081;-79
2022/08/21 10:24:57;;;;;;;4.22;0.90;;;20.90;99.90;;;;;;4905663;29;20066;-78
2022/08/21 10:27:45;;;;;;;3.95;0.80;;;21.00;99.90;;;;;;4970389;28;20043;-76
2022/08/21 10:30:42;;;;;;;5.30;0.80;;;21.00;99.90;;;;;;4951541;28;20166;-75
2022/08/21 10:33:26;;;;;;;3.42;0.80;;;21.00;99.90;;;;;;4960728;28;20086;-77
2022/08/21 10:36:04;;;;;;;2.17;0.80;;;21.10;99.90;;;;;;4961629;28;20054;-78
2022/08/21 10:38:55;;;;;;;4.60;0.80;;;21.10;99.90;;;;;;4949054;28;20069;-78
2022/08/21 10:41:30;;;;;;;4.50;0.80;;;21.20;99.90;;;;;;4968079;28;20064;-77
2022/08/21 10:44:07;;;;;;;4.22;0.70;;;21.30;99.90;;;;;;4967808;28;20049;-78
2022/08/21 10:46:55;;;;;;;4.43;1.20;;;21.30;99.90;;;;;;4971709;28;20062;-78
2022/08/21 10:49:39;;;;;;;2.35;0.88;;;21.30;99.90;;;;;;4966802;28;20058;-78
2022/08/21 10:52:38;;;;;;;4.00;0.80;;;21.40;99.90;;;;;;4968490;28;20629;-76
2022/08/21 10:55:12;;;;;;;3.90;0.80;;;21.50;99.90;;;;;;4966110;28;20238;-77
2022/08/21 10:57:49;;;;;;;3.95;0.75;;;21.50;99.90;;;;;;4968496;28;20141;-78
2022/08/21 11:00:21;;;;;;;2.97;0.73;;;21.60;99.90;;;;;;4967835;28;20054;-80
2022/08/21 11:02:57;;;;;;;;;;;21.60;99.90;;;;;;4976818;28;20050;-78
2022/08/21 11:05:34;;;;;;;3.72;0.90;;;21.60;99.90;;;;;;4968451;28;19930;-78
2022/08/21 11:08:06;;;;;;;3.75;0.90;;;21.60;99.90;;;;;;4969931;28;20055;-78
2022/08/21 11:10:41;;;;;;;2.55;0.68;;;21.70;99.90;;;;;;4968914;28;20113;-79
2022/08/21 11:13:41;;;;;;;1.88;0.68;;;21.70;99.90;;;;;;4970986;28;20077;-79
2022/08/21 11:16:15;;;;;;;3.17;0.80;;;21.80;99.90;;;;;;4962934;28;20089;-79
2022/08/21 11:19:01;;;;;;;3.65;0.70;;;21.80;99.90;;;;;;4951611;28;20478;-79
2022/08/21 11:21:37;;;;;;;3.25;1.13;;;21.90;99.90;;;;;;4965562;28;20080;-79
2022/08/21 11:24:08;;;;;;;4.30;0.90;;;21.90;99.90;;;;;;4966740;28;20047;-80
2022/08/21 11:26:45;;;;;;;4.18;0.80;;;21.90;99.90;;;;;;4967632;28;20497;-79
2022/08/21 11:29:34;;;;;;;2.85;0.70;;;21.90;99.90;;;;;;4964243;28;20051;-79
2022/08/21 11:32:13;;;;;;;3.22;0.70;;;21.90;99.90;;;;;;4964914;28;20105;-79
2022/08/21 11:35:17;;;;;;;3.08;0.80;;;21.90;99.90;;;;;;4966953;28;20062;-78
2022/08/21 11:37:53;;;;;;;3.75;0.70;;;21.90;99.90;;;;;;4968237;28;20125;-78
2022/08/21 11:40:43;;;;;;;5.38;0.80;;;21.90;99.90;;;;;;4966225;28;20522;-79
2022/08/21 11:43:33;;;;;;;3.17;0.70;;;21.90;99.90;;;;;;4953148;28;20101;-79
2022/08/21 11:46:14;;;;;;;5.15;0.80;;;21.90;99.90;;;;;;4948006;28;20057;-78
2022/08/21 11:49:03;;;;;;;4.22;0.70;;;21.90;99.90;;;;;;4970194;28;20050;-78
2022/08/21 11:51:45;;;;;;;3.47;0.80;;;21.80;99.90;;;;;;4962137;28;20121;-79
2022/08/21 11:54:28;;;;;;;4.50;0.75;;;21.80;99.90;;;;;;4968633;28;20050;-80
2022/08/21 11:57:12;;;;;;;5.50;0.85;;;21.80;99.90;;;;;;4956553;28;20054;-79
2022/08/21 12:00:00;;;;;;;4.38;0.85;;;21.80;99.90;;;;;;4945804;28;20071;-80
2022/08/21 12:02:33;;;;;;;1.85;0.80;;;21.70;99.90;;;;;;4959274;28;20043;-81
2022/08/21 12:05:07;;;;;;;2.25;0.70;;;21.70;99.90;;;;;;4949693;28;20387;-78
2022/08/21 12:07:40;;;;;;;3.17;0.70;;;21.70;99.90;;;;;;4948056;28;20121;-78
2022/08/21 12:10:16;;;;;;;3.25;0.80;;;21.70;99.90;;;;;;4963804;28;20491;-79
2022/08/21 12:12:44;;;;;;;3.50;0.80;;;21.70;99.90;;;;;;4963600;28;20511;-79
2022/08/21 12:15:22;;;;;;;2.72;0.90;;;21.70;99.90;;;;;;4962613;28;20058;-80
2022/08/21 12:18:20;;;;;;;3.38;0.73;;;21.60;99.90;;;;;;4960320;28;20058;-78
2022/08/21 12:21:19;;;;;;;5.30;0.70;;;21.60;99.90;;;;;;4962022;28;20481;-79
2022/08/21 12:23:58;;;;;;;2.67;0.70;;;21.50;99.90;;;;;;4961106;28;20081;-78
2022/08/21 12:26:34;;;;;;;2.85;0.68;;;21.50;99.90;;;;;;4961198;28;20038;-78
2022/08/21 12:29:36;;;;;;;2.03;0.80;;;21.40;99.90;;;;;;4960293;28;20047;-78
2022/08/21 12:32:10;;;;;;;2.92;0.80;;;21.40;99.90;;;;;;4910267;28;20090;-79
2022/08/21 12:35:16;;;;;;;3.03;0.70;;;21.30;99.90;;;;;;4959886;28;20047;-80
2022/08/21 12:37:52;;;;;;;3.00;0.90;;;21.30;99.90;;;;;;4961124;28;20066;-80
2022/08/21 12:40:30;;;;;;;3.67;1.00;;;21.20;99.90;;;;;;4959247;28;20070;-80
2022/08/21 12:43:00;;;;;;;4.28;1.00;;;21.20;99.90;;;;;;4959257;28;20055;-80
2022/08/21 12:45:37;;;;;;;2.60;0.90;;;21.30;99.90;;;;;;4959130;28;20403;-80
2022/08/21 12:48:11;;;;;;;3.78;0.90;;;21.30;99.90;;;;;;4959670;28;20051;-80
2022/08/21 12:50:49;;;;;;;5.63;1.10;;;21.40;99.90;;;;;;4943848;28;20055;-80
2022/08/21 12:53:33;;;;;;;3.25;0.73;;;21.40;99.90;;;;;;4943467;28;20079;-80
2022/08/21 12:56:04;;;;;;;3.90;0.80;;;21.50;99.90;;;;;;4959942;28;20054;-81
2022/08/21 12:58:30;;;;;;;3.15;0.95;;;21.60;99.90;;;;;;4960930;28;20051;-80
2022/08/21 13:01:12;;;;;;;4.07;0.80;;;21.70;99.90;;;;;;4960903;28;20542;-79
2022/08/21 13:03:40;;;;;;;2.30;0.68;;;21.80;99.90;;;;;;4962922;28;20219;-79
2022/08/21 13:06:06;;;;;;;3.92;0.85;;;21.90;99.90;;;;;;4977685;28;20554;-79
2022/08/21 13:08:36;;;;;;;3.60;0.80;;;22.00;99.90;;;;;;4963308;28;20172;-76
2022/08/21 13:11:05;;;;;;;3.83;0.80;;;22.10;99.90;;;;;;4963445;28;20047;-79
2022/08/21 13:13:32;;;;;;;4.20;0.88;;;22.20;99.90;;;;;;4962961;28;20094;-80
2022/08/21 13:16:06;;;;;;;3.83;0.82;;;22.30;99.90;;;;;;4967680;28;20532;-79
2022/08/21 13:18:37;;;;;;;7.50;1.20;;;22.40;99.90;;;;;;4968383;28;20058;-80